createdAt,value
2017-12-22T00:01:35.678Z,37.70
2017-12-22T00:04:03.202Z,31.77
2017-12-22T00:06:30.716Z,35.67
2017-12-22T00:08:58.204Z,35.00
2017-12-22T00:11:25.757Z,37.97
2017-12-22T00:13:53.374Z,36.97
2017-12-22T00:16:21.040Z,36.75
2017-12-22T00:18:48.654Z,33.00
2017-12-22T00:21:16.230Z,32.15
2017-12-22T00:23:43.816Z,35.25
2017-12-22T00:26:11.451Z,34.40
2017-12-22T00:28:39.012Z,27.92
2017-12-22T00:31:06.482Z,32.53
2017-12-22T00:33:34.016Z,32.55
2017-12-22T00:36:01.582Z,32.35
2017-12-22T00:38:29.070Z,36.05
2017-12-22T00:40:56.636Z,28.30
2017-12-22T00:43:24.190Z,39.20
2017-12-22T00:46:02.425Z,29.25
2017-12-22T00:48:29.929Z,29.05
2017-12-22T00:50:57.427Z,32.72
2017-12-22T00:53:24.913Z,31.55
2017-12-22T00:55:52.418Z,26.62
2017-12-22T00:58:19.915Z,29.27
2017-12-22T01:00:47.642Z,31.45
2017-12-22T01:03:15.814Z,26.52
2017-12-22T01:05:43.538Z,27.95
2017-12-22T01:08:11.196Z,30.02
2017-12-22T01:10:38.750Z,24.70
2017-12-22T01:13:06.331Z,24.92
2017-12-22T01:15:39.662Z,26.48
2017-12-22T01:18:12.713Z,24.35
2017-12-22T01:20:40.434Z,27.75
2017-12-22T01:23:08.730Z,33.85
2017-12-22T01:25:36.660Z,36.05
2017-12-22T01:28:04.370Z,35.20
2017-12-22T01:30:31.953Z,32.50
2017-12-22T01:32:59.526Z,29.55
2017-12-22T01:35:27.191Z,29.27
2017-12-22T01:37:54.789Z,35.13
2017-12-22T01:40:22.315Z,25.00
2017-12-22T01:42:49.883Z,34.08
2017-12-22T01:45:17.543Z,33.42
2017-12-22T01:47:45.121Z,31.92
2017-12-22T01:50:12.632Z,36.05
2017-12-22T01:52:40.121Z,33.25
2017-12-22T01:55:07.730Z,35.70
2017-12-22T01:57:35.323Z,30.20
2017-12-22T02:00:03.719Z,34.65
2017-12-22T02:02:32.150Z,39.65
2017-12-22T02:04:59.797Z,35.20
2017-12-22T02:07:27.405Z,34.25
2017-12-22T02:09:55.391Z,26.83
2017-12-22T02:12:23.187Z,24.23
2017-12-22T02:14:50.860Z,29.42
2017-12-22T02:17:18.441Z,27.55
2017-12-22T02:19:45.999Z,36.17
2017-12-22T02:22:13.491Z,19.62
2017-12-22T02:24:41.771Z,25.45
2017-12-22T02:27:09.309Z,22.30
2017-12-22T02:29:36.832Z,23.33
2017-12-22T02:32:04.364Z,15.20
2017-12-22T02:34:31.996Z,20.50
2017-12-22T02:36:59.572Z,17.00
2017-12-22T02:39:27.079Z,19.45
2017-12-22T02:41:54.619Z,17.73
2017-12-22T02:44:22.163Z,18.08
2017-12-22T02:46:50.570Z,14.27
2017-12-22T02:49:18.098Z,22.35
2017-12-22T02:51:46.380Z,15.35
2017-12-22T02:54:13.925Z,19.05
2017-12-22T02:56:41.494Z,17.25
2017-12-22T02:59:10.288Z,14.43
2017-12-22T03:01:38.666Z,20.88
2017-12-22T03:04:06.162Z,14.27
2017-12-22T03:06:33.666Z,15.57
2017-12-22T03:09:01.153Z,17.30
2017-12-22T03:11:28.714Z,17.60
2017-12-22T03:13:56.248Z,15.63
2017-12-22T03:16:24.534Z,17.77
2017-12-22T03:18:52.848Z,18.40
2017-12-22T03:21:20.515Z,17.37
2017-12-22T03:23:48.202Z,16.17
2017-12-22T03:26:15.739Z,16.42
2017-12-22T03:28:43.301Z,18.70
2017-12-22T03:31:10.797Z,18.15
2017-12-22T03:33:38.471Z,15.57
2017-12-22T03:36:07.650Z,20.42
2017-12-22T03:38:35.248Z,15.48
2017-12-22T03:41:02.827Z,19.05
2017-12-22T03:43:30.459Z,9.55
2017-12-22T03:45:58.012Z,12.90
2017-12-22T03:48:25.553Z,15.13
2017-12-22T03:50:53.220Z,14.98
2017-12-22T03:53:21.499Z,13.68
2017-12-22T03:55:49.061Z,22.23
2017-12-22T03:58:16.601Z,20.50
2017-12-22T04:00:44.235Z,25.48
2017-12-22T04:03:11.745Z,21.20
2017-12-22T04:05:40.014Z,24.23
2017-12-22T04:08:07.551Z,26.25
2017-12-22T04:10:35.044Z,21.23
2017-12-22T04:13:02.756Z,33.13
2017-12-22T04:15:30.378Z,28.17
2017-12-22T04:17:57.892Z,35.13
2017-12-22T04:20:25.539Z,38.60
2017-12-22T04:22:53.061Z,37.70
2017-12-22T04:25:20.536Z,35.38
2017-12-22T04:27:48.050Z,35.38
2017-12-22T04:30:15.556Z,36.35
2017-12-22T04:32:43.183Z,35.80
2017-12-22T04:35:10.714Z,34.35
2017-12-22T04:37:38.263Z,41.00
2017-12-22T04:40:06.594Z,31.25
2017-12-22T04:42:34.119Z,30.30
2017-12-22T04:45:01.754Z,38.03
2017-12-22T04:47:29.277Z,32.60
2017-12-22T04:49:56.766Z,26.90
2017-12-22T04:52:24.378Z,36.80
2017-12-22T04:54:51.906Z,40.67
2017-12-22T04:57:19.637Z,31.85
2017-12-22T04:59:47.209Z,37.47
2017-12-22T05:02:14.800Z,33.63
2017-12-22T05:04:43.127Z,30.73
2017-12-22T05:07:10.716Z,31.98
2017-12-22T05:09:39.985Z,26.95
2017-12-22T05:12:07.569Z,31.70
2017-12-22T05:14:35.132Z,24.70
2017-12-22T05:17:03.601Z,23.33
2017-12-22T05:19:31.241Z,32.55
2017-12-22T05:21:58.978Z,25.90
2017-12-22T05:24:27.442Z,34.78
2017-12-22T05:26:55.175Z,26.37
2017-12-22T05:29:22.917Z,27.15
2017-12-22T05:31:51.333Z,30.05
2017-12-22T05:34:18.846Z,30.62
2017-12-22T05:36:46.331Z,25.37
2017-12-22T05:39:13.888Z,25.37
2017-12-22T05:41:41.393Z,23.20
2017-12-22T05:44:08.895Z,23.27
2017-12-22T05:46:36.375Z,27.67
2017-12-22T05:49:03.926Z,25.27
2017-12-22T05:51:31.452Z,28.15
2017-12-22T05:53:59.026Z,29.83
2017-12-22T05:56:26.549Z,21.40
2017-12-22T05:58:54.770Z,26.45
2017-12-22T06:01:22.322Z,24.12
2017-12-22T06:03:51.131Z,27.83
2017-12-22T06:06:18.794Z,23.42
2017-12-22T06:08:46.544Z,24.30
2017-12-22T06:11:14.061Z,27.37
2017-12-22T06:13:45.396Z,24.63
2017-12-22T06:16:13.357Z,24.50
2017-12-22T06:18:44.016Z,26.00
2017-12-22T06:21:11.605Z,21.35
2017-12-22T06:23:39.253Z,25.62
2017-12-22T06:26:07.031Z,28.60
2017-12-22T06:28:34.910Z,26.70
2017-12-22T06:31:02.808Z,24.45
2017-12-22T06:33:31.399Z,22.50
2017-12-22T06:35:59.339Z,29.23
2017-12-22T06:38:27.024Z,28.55
2017-12-22T06:40:55.704Z,25.45
2017-12-22T06:43:23.425Z,24.48
2017-12-22T06:45:58.996Z,22.75
2017-12-22T06:51:32.146Z,22.37
2017-12-22T06:53:59.827Z,25.25
2017-12-22T06:56:46.876Z,30.85
2017-12-22T06:59:14.772Z,25.08
2017-12-22T07:01:42.616Z,31.52
2017-12-22T07:04:12.186Z,31.25
2017-12-22T07:06:39.702Z,27.60
2017-12-22T07:09:07.362Z,31.02
2017-12-22T07:11:35.141Z,28.02
2017-12-22T07:14:02.849Z,22.67
2017-12-22T07:16:30.399Z,28.05
2017-12-22T07:18:57.942Z,29.92
2017-12-22T07:21:36.894Z,28.87
2017-12-22T07:24:04.395Z,28.98
2017-12-22T07:26:31.973Z,26.42
2017-12-22T07:28:59.455Z,27.77
2017-12-22T07:31:26.978Z,24.92
2017-12-22T07:33:54.486Z,24.35
2017-12-22T07:36:21.968Z,24.90
2017-12-22T07:38:50.234Z,30.37
2017-12-22T07:41:17.779Z,25.45
2017-12-22T07:43:45.263Z,26.75
2017-12-22T07:46:13.521Z,24.12
2017-12-22T07:48:40.983Z,21.05
2017-12-22T07:51:08.446Z,21.70
2017-12-22T07:53:35.915Z,26.77
2017-12-22T07:56:04.166Z,24.95
2017-12-22T07:58:31.655Z,24.50
2017-12-22T08:00:59.148Z,25.95
2017-12-22T08:03:26.611Z,30.42
2017-12-22T08:05:54.099Z,19.12
2017-12-22T08:08:21.562Z,27.25
2017-12-22T08:10:49.019Z,24.05
2017-12-22T08:13:17.268Z,22.83
2017-12-22T08:15:44.758Z,22.48
2017-12-22T08:18:12.218Z,21.98
2017-12-22T08:20:40.486Z,18.25
2017-12-22T08:23:08.736Z,23.27
2017-12-22T08:25:36.222Z,26.48
2017-12-22T08:28:03.724Z,25.08
2017-12-22T08:30:31.195Z,23.12
2017-12-22T08:32:58.667Z,22.65
2017-12-22T08:35:26.146Z,23.83
2017-12-22T08:37:53.617Z,25.73
2017-12-22T08:40:21.130Z,24.00
2017-12-22T08:42:48.624Z,26.77
2017-12-22T08:45:16.852Z,28.00
2017-12-22T08:47:44.326Z,20.83
2017-12-22T08:50:11.796Z,25.90
2017-12-22T08:52:39.266Z,21.20
2017-12-22T08:55:07.525Z,23.77
2017-12-22T08:57:34.989Z,23.08
2017-12-22T09:00:02.481Z,26.37
2017-12-22T09:02:29.953Z,22.15
2017-12-22T09:04:57.398Z,22.83
2017-12-22T09:07:24.841Z,26.77
2017-12-22T09:09:52.297Z,23.33
2017-12-22T09:12:19.770Z,24.27
2017-12-22T09:14:47.314Z,23.83
2017-12-22T09:17:14.867Z,22.17
2017-12-22T09:19:43.146Z,23.73
2017-12-22T09:22:10.662Z,24.17
2017-12-22T09:24:38.166Z,25.27
2017-12-22T09:27:05.667Z,31.40
2017-12-22T09:29:33.184Z,25.23
2017-12-22T09:32:00.747Z,30.52
2017-12-22T09:34:28.315Z,31.23
2017-12-22T09:36:55.827Z,22.65
2017-12-22T09:39:23.395Z,24.73
2017-12-22T09:41:50.937Z,28.42
2017-12-22T09:44:18.446Z,29.33
2017-12-22T09:46:46.007Z,26.58
2017-12-22T09:49:13.595Z,28.40
2017-12-22T09:51:41.122Z,33.45
2017-12-22T09:54:08.705Z,26.27
2017-12-22T09:56:36.231Z,28.87
2017-12-22T09:59:03.775Z,30.98
2017-12-22T10:01:31.375Z,28.67
2017-12-22T10:03:58.894Z,26.52
2017-12-22T10:06:26.380Z,32.50
2017-12-22T10:08:53.878Z,27.48
2017-12-22T10:11:21.374Z,31.42
2017-12-22T10:13:50.559Z,25.37
2017-12-22T10:16:18.179Z,28.85
2017-12-22T10:18:47.655Z,25.85
2017-12-22T10:21:15.206Z,24.45
2017-12-22T10:23:42.649Z,29.75
2017-12-22T10:26:10.996Z,29.30
2017-12-22T10:28:38.470Z,28.27
2017-12-22T10:31:06.055Z,31.10
2017-12-22T10:33:34.298Z,29.05
2017-12-22T10:36:01.773Z,28.23
2017-12-22T10:38:29.634Z,29.58
2017-12-22T10:40:57.142Z,27.85
2017-12-22T10:43:24.616Z,24.17
2017-12-22T10:45:52.154Z,31.27
2017-12-22T10:48:19.618Z,25.55
2017-12-22T10:50:47.097Z,29.65
2017-12-22T10:53:14.600Z,24.42
2017-12-22T10:55:42.137Z,23.00
2017-12-22T10:58:09.782Z,22.10
2017-12-22T11:00:37.336Z,25.23
2017-12-22T11:03:04.868Z,22.92
2017-12-22T11:05:32.400Z,25.62
2017-12-22T11:07:59.880Z,22.73
2017-12-22T11:10:27.372Z,24.58
2017-12-22T11:12:54.856Z,18.02
2017-12-22T11:15:23.268Z,23.38
2017-12-22T11:17:50.771Z,23.33
2017-12-22T11:20:18.256Z,18.42
2017-12-22T11:22:45.726Z,19.95
2017-12-22T11:25:13.218Z,19.83
2017-12-22T11:27:40.710Z,26.37
2017-12-22T11:30:08.195Z,20.08
2017-12-22T11:32:36.537Z,20.55
2017-12-22T11:35:04.215Z,18.90
2017-12-22T11:37:33.012Z,17.12
2017-12-22T11:40:26.440Z,23.35
2017-12-22T11:43:09.690Z,18.75
2017-12-22T11:45:41.048Z,21.70
2017-12-22T11:48:12.872Z,30.67
2017-12-22T11:53:31.847Z,29.48
2017-12-22T11:55:59.358Z,22.67
2017-12-22T11:58:26.863Z,22.77
2017-12-22T12:00:54.339Z,15.93
2017-12-22T12:03:21.823Z,19.92
2017-12-22T12:05:51.046Z,21.75
2017-12-22T12:08:18.534Z,26.75
2017-12-22T12:10:46.016Z,22.75
2017-12-22T12:13:14.826Z,20.27
2017-12-22T12:15:42.294Z,18.95
2017-12-22T12:18:09.744Z,16.02
2017-12-22T12:20:37.223Z,25.15
2017-12-22T12:23:04.759Z,20.60
2017-12-22T12:25:32.302Z,16.42
2017-12-22T12:28:00.571Z,19.20
2017-12-22T12:30:29.179Z,17.10
2017-12-22T12:32:56.666Z,19.85
2017-12-22T12:35:38.859Z,27.92
2017-12-22T12:38:06.378Z,13.95
2017-12-22T12:43:45.267Z,19.83
2017-12-22T12:46:29.176Z,16.60
2017-12-22T12:48:59.571Z,17.85
2017-12-22T12:51:27.159Z,24.33
2017-12-22T12:53:54.644Z,18.67
2017-12-22T12:56:22.220Z,24.60
2017-12-22T12:58:49.732Z,23.00
2017-12-22T13:01:17.999Z,29.15
2017-12-22T13:03:46.276Z,21.33
2017-12-22T13:06:14.523Z,25.20
2017-12-22T13:08:42.007Z,21.62
2017-12-22T13:11:09.496Z,19.95
2017-12-22T13:13:36.957Z,16.05
2017-12-22T13:16:04.438Z,19.92
2017-12-22T13:18:31.936Z,20.35
2017-12-22T13:20:59.425Z,18.40
2017-12-22T13:23:28.291Z,21.60
2017-12-22T13:25:55.826Z,25.60
2017-12-22T13:28:25.302Z,23.17
2017-12-22T13:30:52.879Z,19.83
2017-12-22T13:33:20.373Z,32.58
2017-12-22T13:35:51.025Z,19.05
2017-12-22T13:38:18.506Z,20.80
2017-12-22T13:40:45.971Z,20.02
2017-12-22T13:43:13.444Z,32.20
2017-12-22T13:45:40.946Z,16.12
2017-12-22T13:48:08.537Z,22.15
2017-12-22T13:50:36.097Z,17.80
2017-12-22T13:53:03.615Z,17.42
2017-12-22T13:55:38.589Z,13.60
2017-12-22T13:58:10.005Z,15.07
2017-12-22T14:00:37.667Z,12.82
2017-12-22T14:03:05.220Z,23.42
2017-12-22T14:05:33.629Z,15.57
2017-12-22T14:08:01.261Z,13.32
2017-12-22T14:10:28.799Z,20.67
2017-12-22T14:12:57.521Z,18.30
2017-12-22T14:20:58.470Z,22.70
2017-12-22T14:23:27.159Z,13.30
2017-12-22T14:26:24.488Z,14.05
2017-12-22T14:35:07.439Z,10.18
2017-12-22T14:37:57.550Z,17.12
2017-12-22T14:40:52.651Z,18.90
2017-12-22T14:43:27.872Z,13.07
2017-12-22T14:46:00.725Z,16.60
2017-12-22T14:48:36.194Z,17.55
2017-12-22T14:54:07.304Z,16.37
2017-12-22T15:02:44.620Z,12.07
2017-12-22T15:05:14.057Z,14.70
2017-12-22T15:10:42.683Z,17.25
2017-12-22T15:18:00.550Z,21.05
2017-12-22T15:20:36.503Z,15.20
2017-12-22T15:23:04.175Z,26.10
2017-12-22T15:25:32.460Z,17.12
2017-12-22T15:28:00.974Z,16.12
2017-12-22T15:30:28.622Z,17.00
2017-12-22T15:32:56.891Z,20.20
2017-12-22T15:35:24.357Z,19.20
2017-12-22T15:37:51.915Z,15.40
2017-12-22T15:40:24.189Z,17.90
2017-12-22T15:42:54.315Z,24.12
2017-12-22T15:45:31.167Z,18.55
2017-12-22T15:48:01.701Z,26.12
2017-12-22T15:50:29.204Z,17.73
2017-12-22T15:52:56.684Z,18.95
2017-12-22T15:55:24.223Z,21.92
2017-12-22T15:57:51.714Z,17.35
2017-12-22T16:00:19.507Z,19.25
2017-12-22T16:02:47.034Z,19.30
2017-12-22T16:05:14.552Z,23.62
2017-12-22T16:07:42.051Z,22.13
2017-12-22T16:10:10.559Z,24.60
2017-12-22T16:12:38.117Z,22.83
2017-12-22T16:15:06.811Z,27.40
2017-12-22T16:17:34.508Z,24.05
2017-12-22T16:20:01.990Z,16.15
2017-12-22T16:22:29.510Z,24.40
2017-12-22T16:24:56.991Z,28.70
2017-12-22T16:27:29.086Z,23.58
2017-12-22T16:29:59.017Z,18.25
2017-12-22T16:32:26.977Z,20.45
2017-12-22T16:34:54.583Z,24.75
2017-12-22T16:37:37.079Z,22.92
2017-12-22T16:40:04.589Z,29.80
2017-12-22T16:42:32.386Z,25.45
2017-12-22T16:45:00.142Z,21.05
2017-12-22T16:47:27.691Z,23.95
2017-12-22T16:49:55.359Z,22.05
2017-12-22T16:52:23.072Z,25.67
2017-12-22T16:54:50.754Z,34.20
2017-12-22T16:57:18.261Z,23.62
2017-12-22T16:59:45.916Z,28.05
2017-12-22T17:02:22.954Z,19.92
2017-12-22T17:04:50.527Z,32.17
2017-12-22T17:07:18.037Z,27.05
2017-12-22T17:09:47.480Z,22.02
2017-12-22T17:12:16.690Z,27.23
2017-12-22T17:14:45.262Z,22.90
2017-12-22T17:17:12.765Z,28.38
2017-12-22T17:19:40.307Z,33.22
2017-12-22T17:22:07.827Z,23.15
2017-12-22T17:24:35.346Z,34.65
2017-12-22T17:27:02.844Z,25.35
2017-12-22T17:29:30.347Z,29.58
2017-12-22T17:31:58.786Z,52.22
2017-12-22T17:34:26.254Z,31.20
2017-12-22T17:36:53.707Z,32.95
2017-12-22T17:39:21.308Z,29.65
2017-12-22T17:41:49.538Z,40.67
2017-12-22T17:44:17.140Z,34.72
2017-12-22T17:46:44.659Z,33.03
2017-12-22T17:49:12.149Z,31.25
2017-12-22T17:51:40.385Z,37.42
2017-12-22T17:54:07.850Z,27.45
2017-12-22T17:56:35.311Z,31.60
2017-12-22T17:59:02.807Z,27.58
2017-12-22T18:01:31.046Z,27.45
2017-12-22T18:03:58.537Z,27.00
2017-12-22T18:06:29.343Z,34.13
2017-12-22T18:08:56.912Z,24.12
2017-12-22T18:11:28.380Z,25.42
2017-12-22T18:22:36.798Z,33.67
2017-12-22T18:25:05.355Z,28.77
2017-12-22T18:30:44.779Z,36.47
2017-12-22T18:33:15.227Z,33.45
2017-12-22T18:35:43.039Z,37.38
2017-12-22T18:38:13.361Z,28.42
2017-12-22T18:40:44.360Z,35.03
2017-12-22T18:43:16.612Z,24.27
2017-12-22T18:45:44.499Z,30.85
2017-12-22T18:48:12.211Z,27.05
2017-12-22T18:50:39.971Z,31.30
2017-12-22T18:53:08.675Z,31.85
2017-12-22T18:55:37.713Z,23.00
2017-12-22T18:58:05.519Z,26.30
2017-12-22T19:00:33.369Z,28.65
2017-12-22T19:03:00.995Z,32.70
2017-12-22T19:05:28.615Z,32.38
2017-12-22T19:07:56.978Z,27.20
2017-12-22T19:10:25.516Z,39.63
2017-12-22T19:12:54.477Z,25.42
2017-12-22T19:15:22.402Z,31.12
2017-12-22T19:17:56.100Z,26.75
2017-12-22T19:20:23.628Z,32.67
2017-12-22T19:22:51.242Z,32.10
2017-12-22T19:25:18.827Z,29.73
2017-12-22T19:27:47.083Z,32.83
2017-12-22T19:30:15.638Z,30.05
2017-12-22T19:32:44.270Z,32.38
2017-12-22T19:35:11.775Z,32.05
2017-12-22T19:37:39.220Z,28.27
2017-12-22T19:40:06.667Z,27.92
2017-12-22T19:42:34.116Z,34.55
2017-12-22T19:45:02.351Z,30.23
2017-12-22T19:47:29.830Z,24.85
2017-12-22T19:49:57.286Z,36.50
2017-12-22T19:52:28.995Z,24.08
2017-12-22T19:54:57.686Z,30.90
2017-12-22T19:57:25.575Z,29.65
2017-12-22T21:43:40.858Z,39.15
2017-12-22T21:46:11.066Z,32.80
2017-12-22T21:48:38.665Z,35.53
2017-12-22T21:51:12.152Z,31.48
2017-12-22T21:59:37.252Z,42.85
2017-12-22T22:36:44.228Z,32.28
2017-12-22T22:39:27.407Z,36.35
2017-12-22T22:41:55.658Z,30.17
2017-12-22T22:44:28.868Z,29.83
2017-12-22T22:46:56.897Z,29.65
2017-12-22T22:49:24.705Z,26.95
2017-12-22T22:51:52.270Z,28.70
2017-12-22T22:54:19.842Z,26.67
2017-12-22T22:56:48.740Z,33.90
2017-12-22T22:59:24.937Z,27.75
2017-12-22T23:01:54.963Z,29.63
2017-12-22T23:04:22.714Z,31.40
2017-12-22T23:09:37.363Z,25.25
2017-12-22T23:12:16.944Z,30.95
2017-12-22T23:17:56.506Z,26.12
2017-12-22T23:20:28.093Z,29.80
2017-12-22T23:23:09.560Z,29.20
2017-12-22T23:25:50.712Z,29.33
